sensor_id;sensor_type;location;lat;lon;timestamp;pressure;altitude;pressure_sealevel;temperature;humidity
83460;BME280;73384;49.646;7.168;2024-03-08T00:00:38;97199.50;;;-0.92;86.57
83460;BME280;73384;49.646;7.168;2024-03-08T00:03:05;97202.44;;;-0.95;86.25
83460;BME280;73384;49.646;7.168;2024-03-08T00:05:30;97204.78;;;-0.92;86.64
83460;BME280;73384;49.646;7.168;2024-03-08T00:07:56;97187.91;;;-1.07;86.75
83460;BME280;73384;49.646;7.168;2024-03-08T00:10:22;97209.50;;;-0.96;86.89
83460;BME280;73384;49.646;7.168;2024-03-08T00:12:47;97213.00;;;-0.87;86.40
83460;BME280;73384;49.646;7.168;2024-03-08T00:15:13;97204.03;;;-0.76;86.38
83460;BME280;73384;49.646;7.168;2024-03-08T00:17:40;97187.53;;;-0.52;85.11
83460;BME280;73384;49.646;7.168;2024-03-08T00:20:07;97202.38;;;-0.43;84.88
83460;BME280;73384;49.646;7.168;2024-03-08T00:22:38;97195.69;;;-0.29;85.01
83460;BME280;73384;49.646;7.168;2024-03-08T00:25:05;97190.59;;;-0.22;84.73
83460;BME280;73384;49.646;7.168;2024-03-08T00:27:31;97197.34;;;-0.28;85.06
83460;BME280;73384;49.646;7.168;2024-03-08T00:29:59;97193.38;;;-0.32;85.11
83460;BME280;73384;49.646;7.168;2024-03-08T00:32:25;97193.84;;;-0.28;85.30
83460;BME280;73384;49.646;7.168;2024-03-08T00:34:51;97184.66;;;-0.24;84.69
83460;BME280;73384;49.646;7.168;2024-03-08T00:37:22;97180.84;;;-0.30;85.22
83460;BME280;73384;49.646;7.168;2024-03-08T00:39:50;97184.19;;;-0.28;85.34
83460;BME280;73384;49.646;7.168;2024-03-08T00:42:17;97179.41;;;-0.24;85.01
83460;BME280;73384;49.646;7.168;2024-03-08T00:44:43;97180.69;;;-0.28;84.91
83460;BME280;73384;49.646;7.168;2024-03-08T00:47:08;97184.13;;;-0.36;85.30
83460;BME280;73384;49.646;7.168;2024-03-08T00:49:33;97173.25;;;-0.41;85.31
83460;BME280;73384;49.646;7.168;2024-03-08T00:51:59;97175.56;;;-0.46;85.32
83460;BME280;73384;49.646;7.168;2024-03-08T00:54:24;97171.06;;;-0.62;85.68
83460;BME280;73384;49.646;7.168;2024-03-08T00:56:50;97180.38;;;-0.68;86.30
83460;BME280;73384;49.646;7.168;2024-03-08T00:59:15;97176.25;;;-0.70;86.40
83460;BME280;73384;49.646;7.168;2024-03-08T01:01:41;97177.25;;;-0.71;87.07
83460;BME280;73384;49.646;7.168;2024-03-08T01:04:06;97147.41;;;-0.97;87.13
83460;BME280;73384;49.646;7.168;2024-03-08T01:06:33;97155.44;;;-0.98;86.98
83460;BME280;73384;49.646;7.168;2024-03-08T01:08:58;97159.22;;;-0.93;86.94
83460;BME280;73384;49.646;7.168;2024-03-08T01:11:23;97155.91;;;-1.03;87.11
83460;BME280;73384;49.646;7.168;2024-03-08T01:13:49;97164.72;;;-1.12;87.38
83460;BME280;73384;49.646;7.168;2024-03-08T01:16:14;97157.59;;;-1.20;87.77
83460;BME280;73384;49.646;7.168;2024-03-08T01:18:40;97149.56;;;-1.18;87.71
83460;BME280;73384;49.646;7.168;2024-03-08T01:21:05;97143.44;;;-1.27;87.70
83460;BME280;73384;49.646;7.168;2024-03-08T01:23:31;97153.97;;;-1.19;87.96
83460;BME280;73384;49.646;7.168;2024-03-08T01:25:56;97145.09;;;-1.26;88.25
83460;BME280;73384;49.646;7.168;2024-03-08T01:28:25;97145.13;;;-1.18;87.83
83460;BME280;73384;49.646;7.168;2024-03-08T01:30:51;97113.81;;;-1.37;87.86
83460;BME280;73384;49.646;7.168;2024-03-08T01:33:23;97142.50;;;-1.18;87.61
83460;BME280;73384;49.646;7.168;2024-03-08T01:35:51;97143.16;;;-1.16;87.80
83460;BME280;73384;49.646;7.168;2024-03-08T01:38:16;97128.88;;;-1.13;87.91
83460;BME280;73384;49.646;7.168;2024-03-08T01:40:41;97126.72;;;-1.18;87.58
83460;BME280;73384;49.646;7.168;2024-03-08T01:43:20;97134.56;;;-1.26;87.74
83460;BME280;73384;49.646;7.168;2024-03-08T01:45:47;97122.53;;;-1.37;87.45
83460;BME280;73384;49.646;7.168;2024-03-08T01:48:12;97128.53;;;-1.45;87.99
83460;BME280;73384;49.646;7.168;2024-03-08T01:50:38;97125.72;;;-1.51;88.10
83460;BME280;73384;49.646;7.168;2024-03-08T01:53:05;97115.81;;;-1.57;88.36
83460;BME280;73384;49.646;7.168;2024-03-08T01:55:31;97112.84;;;-1.63;88.46
83460;BME280;73384;49.646;7.168;2024-03-08T01:57:57;97115.63;;;-1.64;88.78
83460;BME280;73384;49.646;7.168;2024-03-08T02:00:24;97112.00;;;-1.63;89.36
83460;BME280;73384;49.646;7.168;2024-03-08T02:02:53;97105.09;;;-1.64;89.57
83460;BME280;73384;49.646;7.168;2024-03-08T02:05:19;97098.25;;;-1.57;89.62
83460;BME280;73384;49.646;7.168;2024-03-08T02:07:47;97095.28;;;-1.62;89.42
83460;BME280;73384;49.646;7.168;2024-03-08T02:10:13;97092.19;;;-1.57;90.00
83460;BME280;73384;49.646;7.168;2024-03-08T02:12:38;97089.41;;;-1.56;89.47
83460;BME280;73384;49.646;7.168;2024-03-08T02:15:04;97089.25;;;-1.54;89.66
83460;BME280;73384;49.646;7.168;2024-03-08T02:17:31;97083.31;;;-1.56;89.79
83460;BME280;73384;49.646;7.168;2024-03-08T02:19:59;97092.19;;;-1.57;89.98
83460;BME280;73384;49.646;7.168;2024-03-08T02:22:27;97088.72;;;-1.58;90.05
83460;BME280;73384;49.646;7.168;2024-03-08T02:24:52;97080.47;;;-1.63;89.95
83460;BME280;73384;49.646;7.168;2024-03-08T02:27:23;97073.25;;;-1.61;89.80
83460;BME280;73384;49.646;7.168;2024-03-08T02:29:48;97078.16;;;-1.66;89.72
83460;BME280;73384;49.646;7.168;2024-03-08T02:32:14;97072.91;;;-1.66;90.05
83460;BME280;73384;49.646;7.168;2024-03-08T02:34:39;97075.53;;;-1.66;89.87
83460;BME280;73384;49.646;7.168;2024-03-08T02:37:04;97074.22;;;-1.70;90.10
83460;BME280;73384;49.646;7.168;2024-03-08T02:39:29;97050.31;;;-1.85;90.14
83460;BME280;73384;49.646;7.168;2024-03-08T02:41:55;97072.56;;;-1.71;90.08
83460;BME280;73384;49.646;7.168;2024-03-08T02:44:20;97071.63;;;-1.62;90.07
83460;BME280;73384;49.646;7.168;2024-03-08T02:46:46;97046.03;;;-1.86;90.07
83460;BME280;73384;49.646;7.168;2024-03-08T02:49:12;97062.66;;;-1.77;89.82
83460;BME280;73384;49.646;7.168;2024-03-08T02:51:37;97063.31;;;-1.75;89.90
83460;BME280;73384;49.646;7.168;2024-03-08T02:54:02;97072.19;;;-1.76;89.97
83460;BME280;73384;49.646;7.168;2024-03-08T02:56:29;97036.28;;;-1.94;90.07
83460;BME280;73384;49.646;7.168;2024-03-08T02:58:55;97062.97;;;-1.81;90.16
83460;BME280;73384;49.646;7.168;2024-03-08T03:01:20;97053.59;;;-1.83;90.15
83460;BME280;73384;49.646;7.168;2024-03-08T03:03:45;97052.72;;;-1.92;90.00
83460;BME280;73384;49.646;7.168;2024-03-08T03:06:12;97050.41;;;-1.95;90.51
83460;BME280;73384;49.646;7.168;2024-03-08T03:08:37;97046.44;;;-1.99;90.56
83460;BME280;73384;49.646;7.168;2024-03-08T03:11:03;97050.72;;;-1.98;90.48
83460;BME280;73384;49.646;7.168;2024-03-08T03:13:29;97048.75;;;-1.96;90.68
83460;BME280;73384;49.646;7.168;2024-03-08T03:15:55;97051.38;;;-1.96;90.29
83460;BME280;73384;49.646;7.168;2024-03-08T03:18:23;97050.72;;;-1.98;90.59
83460;BME280;73384;49.646;7.168;2024-03-08T03:20:48;97041.63;;;-2.04;90.42
83460;BME280;73384;49.646;7.168;2024-03-08T03:23:14;97039.47;;;-2.08;90.54
83460;BME280;73384;49.646;7.168;2024-03-08T03:25:39;97041.78;;;-2.05;90.94
83460;BME280;73384;49.646;7.168;2024-03-08T03:28:09;97036.03;;;-2.09;90.72
83460;BME280;73384;49.646;7.168;2024-03-08T03:30:36;97035.25;;;-2.01;91.12
83460;BME280;73384;49.646;7.168;2024-03-08T03:33:02;97036.53;;;-2.05;91.12
83460;BME280;73384;49.646;7.168;2024-03-08T03:35:33;97037.22;;;-2.03;90.96
83460;BME280;73384;49.646;7.168;2024-03-08T03:37:59;96995.41;;;-2.23;90.52
83460;BME280;73384;49.646;7.168;2024-03-08T03:40:32;97011.19;;;-2.14;90.60
83460;BME280;73384;49.646;7.168;2024-03-08T03:42:58;97029.50;;;-2.05;90.73
83460;BME280;73384;49.646;7.168;2024-03-08T03:45:23;97022.94;;;-2.01;90.87
83460;BME280;73384;49.646;7.168;2024-03-08T03:47:49;97006.19;;;-2.08;91.38
83460;BME280;73384;49.646;7.168;2024-03-08T03:50:14;97020.03;;;-1.97;90.81
83460;BME280;73384;49.646;7.168;2024-03-08T03:52:39;97002.16;;;-2.20;90.71
83460;BME280;73384;49.646;7.168;2024-03-08T03:55:04;97022.94;;;-2.01;91.14
83460;BME280;73384;49.646;7.168;2024-03-08T03:57:30;97005.44;;;-2.18;90.90
83460;BME280;73384;49.646;7.168;2024-03-08T03:59:56;97032.59;;;-2.09;91.24
83460;BME280;73384;49.646;7.168;2024-03-08T04:02:24;97027.63;;;-2.12;90.92
83460;BME280;73384;49.646;7.168;2024-03-08T04:04:49;97026.94;;;-2.14;90.94
83460;BME280;73384;49.646;7.168;2024-03-08T04:07:14;97024.03;;;-2.11;91.19
83460;BME280;73384;49.646;7.168;2024-03-08T04:09:40;97029.88;;;-2.18;90.78
83460;BME280;73384;49.646;7.168;2024-03-08T04:12:06;97018.31;;;-2.07;90.68
83460;BME280;73384;49.646;7.168;2024-03-08T04:14:32;97022.38;;;-2.12;90.92
83460;BME280;73384;49.646;7.168;2024-03-08T04:16:57;97021.84;;;-2.16;90.79
83460;BME280;73384;49.646;7.168;2024-03-08T04:19:23;96987.69;;;-2.42;90.88
83460;BME280;73384;49.646;7.168;2024-03-08T04:21:49;97023.75;;;-2.26;91.14
83460;BME280;73384;49.646;7.168;2024-03-08T04:24:15;97018.88;;;-2.21;91.04
83460;BME280;73384;49.646;7.168;2024-03-08T04:26:42;97013.91;;;-2.06;91.05
83460;BME280;73384;49.646;7.168;2024-03-08T04:29:07;97021.94;;;-2.26;90.77
83460;BME280;73384;49.646;7.168;2024-03-08T04:31:32;96995.06;;;-2.46;90.34
83460;BME280;73384;49.646;7.168;2024-03-08T04:33:58;97019.56;;;-2.37;90.91
83460;BME280;73384;49.646;7.168;2024-03-08T04:36:23;97007.56;;;-2.40;91.14
83460;BME280;73384;49.646;7.168;2024-03-08T04:38:50;97008.69;;;-2.42;91.01
83460;BME280;73384;49.646;7.168;2024-03-08T04:41:17;97006.06;;;-2.42;90.98
83460;BME280;73384;49.646;7.168;2024-03-08T04:43:42;97005.59;;;-2.38;91.22
83460;BME280;73384;49.646;7.168;2024-03-08T04:46:08;97003.63;;;-2.44;91.24
83460;BME280;73384;49.646;7.168;2024-03-08T04:48:34;97005.75;;;-2.39;91.04
83460;BME280;73384;49.646;7.168;2024-03-08T04:51:02;97010.78;;;-2.46;90.91
83460;BME280;73384;49.646;7.168;2024-03-08T04:53:29;97006.69;;;-2.48;90.93
83460;BME280;73384;49.646;7.168;2024-03-08T04:55:54;97011.38;;;-2.52;90.93
83460;BME280;73384;49.646;7.168;2024-03-08T04:58:20;97003.44;;;-2.42;90.80
83460;BME280;73384;49.646;7.168;2024-03-08T05:00:46;97004.28;;;-2.42;91.05
83460;BME280;73384;49.646;7.168;2024-03-08T05:03:11;97001.81;;;-2.43;91.26
83460;BME280;73384;49.646;7.168;2024-03-08T05:05:36;97001.16;;;-2.45;90.99
83460;BME280;73384;49.646;7.168;2024-03-08T05:08:02;96996.09;;;-2.39;90.85
83460;BME280;73384;49.646;7.168;2024-03-08T05:10:27;96980.53;;;-2.58;90.89
83460;BME280;73384;49.646;7.168;2024-03-08T05:12:53;96989.44;;;-2.51;91.07
83460;BME280;73384;49.646;7.168;2024-03-08T05:15:18;96996.09;;;-2.57;91.08
83460;BME280;73384;49.646;7.168;2024-03-08T05:17:46;96985.91;;;-2.60;90.97
83460;BME280;73384;49.646;7.168;2024-03-08T05:20:11;96994.19;;;-2.55;91.16
83460;BME280;73384;49.646;7.168;2024-03-08T05:22:38;96986.91;;;-2.61;90.58
83460;BME280;73384;49.646;7.168;2024-03-08T05:25:05;96995.75;;;-2.62;91.02
83460;BME280;73384;49.646;7.168;2024-03-08T05:27:33;96999.63;;;-2.66;90.95
83460;BME280;73384;49.646;7.168;2024-03-08T05:29:59;96996.94;;;-2.56;91.21
83460;BME280;73384;49.646;7.168;2024-03-08T05:32:24;96993.63;;;-2.58;90.89
83460;BME280;73384;49.646;7.168;2024-03-08T05:34:50;96992.28;;;-2.44;90.86
83460;BME280;73384;49.646;7.168;2024-03-08T05:37:15;96984.72;;;-2.29;91.20
83460;BME280;73384;49.646;7.168;2024-03-08T05:39:44;96987.59;;;-2.14;89.64
83460;BME280;73384;49.646;7.168;2024-03-08T05:42:09;96990.34;;;-1.98;89.47
83460;BME280;73384;49.646;7.168;2024-03-08T05:44:34;96983.66;;;-2.19;89.60
83460;BME280;73384;49.646;7.168;2024-03-08T05:47:00;96979.97;;;-2.26;89.86
83460;BME280;73384;49.646;7.168;2024-03-08T05:49:25;96984.13;;;-2.41;90.02
83460;BME280;73384;49.646;7.168;2024-03-08T05:51:50;96978.50;;;-2.46;90.13
83460;BME280;73384;49.646;7.168;2024-03-08T05:54:16;96983.69;;;-2.55;90.26
83460;BME280;73384;49.646;7.168;2024-03-08T05:56:42;96984.28;;;-2.61;90.79
83460;BME280;73384;49.646;7.168;2024-03-08T05:59:08;96982.41;;;-2.68;90.93
83460;BME280;73384;49.646;7.168;2024-03-08T06:01:34;96987.41;;;-2.75;90.34
83460;BME280;73384;49.646;7.168;2024-03-08T06:04:02;96985.78;;;-2.76;90.86
83460;BME280;73384;49.646;7.168;2024-03-08T06:06:28;96993.09;;;-2.80;90.70
83460;BME280;73384;49.646;7.168;2024-03-08T06:08:53;96979.53;;;-2.75;90.94
83460;BME280;73384;49.646;7.168;2024-03-08T06:11:21;96958.44;;;-2.92;91.28
83460;BME280;73384;49.646;7.168;2024-03-08T06:13:47;96956.47;;;-2.90;90.76
83460;BME280;73384;49.646;7.168;2024-03-08T06:16:13;96989.13;;;-2.66;90.93
83460;BME280;73384;49.646;7.168;2024-03-08T06:18:39;96983.81;;;-2.74;90.33
83460;BME280;73384;49.646;7.168;2024-03-08T06:21:05;96955.53;;;-2.88;90.64
83460;BME280;73384;49.646;7.168;2024-03-08T06:23:33;96980.31;;;-2.65;90.45
83460;BME280;73384;49.646;7.168;2024-03-08T06:25:58;96975.28;;;-2.58;90.69
83460;BME280;73384;49.646;7.168;2024-03-08T06:28:24;96984.13;;;-2.59;90.43
83460;BME280;73384;49.646;7.168;2024-03-08T06:30:49;96977.59;;;-2.55;90.45
83460;BME280;73384;49.646;7.168;2024-03-08T06:33:16;96986.53;;;-2.48;89.89
83460;BME280;73384;49.646;7.168;2024-03-08T06:35:42;96982.41;;;-2.50;90.41
83460;BME280;73384;49.646;7.168;2024-03-08T06:38:07;96979.63;;;-2.49;90.13
83460;BME280;73384;49.646;7.168;2024-03-08T06:40:33;96975.53;;;-2.51;90.17
83460;BME280;73384;49.646;7.168;2024-03-08T06:42:58;96948.41;;;-2.60;89.97
83460;BME280;73384;49.646;7.168;2024-03-08T06:45:23;96982.44;;;-2.42;89.56
83460;BME280;73384;49.646;7.168;2024-03-08T06:47:49;96981.19;;;-2.38;89.72
83460;BME280;73384;49.646;7.168;2024-03-08T06:50:14;96977.97;;;-2.32;89.44
83460;BME280;73384;49.646;7.168;2024-03-08T06:52:43;96978.75;;;-2.13;88.74
83460;BME280;73384;49.646;7.168;2024-03-08T06:55:10;96974.53;;;-2.06;88.45
83460;BME280;73384;49.646;7.168;2024-03-08T06:57:41;96980.91;;;-2.09;88.84
83460;BME280;73384;49.646;7.168;2024-03-08T07:00:07;96970.97;;;-1.97;88.21
83460;BME280;73384;49.646;7.168;2024-03-08T07:02:40;96963.63;;;-1.93;87.82
83460;BME280;73384;49.646;7.168;2024-03-08T07:05:05;96949.81;;;-1.95;87.91
83460;BME280;73384;49.646;7.168;2024-03-08T07:07:31;96965.72;;;-1.71;87.32
83460;BME280;73384;49.646;7.168;2024-03-08T07:09:59;96960.31;;;-1.61;86.91
83460;BME280;73384;49.646;7.168;2024-03-08T07:12:24;96958.88;;;-1.55;86.74
83460;BME280;73384;49.646;7.168;2024-03-08T07:14:49;96960.25;;;-1.43;86.35
83460;BME280;73384;49.646;7.168;2024-03-08T07:17:14;96952.72;;;-1.38;86.23
83460;BME280;73384;49.646;7.168;2024-03-08T07:19:41;96958.84;;;-1.29;85.80
83460;BME280;73384;49.646;7.168;2024-03-08T07:22:07;96948.03;;;-1.18;85.41
83460;BME280;73384;49.646;7.168;2024-03-08T07:24:35;96950.81;;;-1.11;85.06
83460;BME280;73384;49.646;7.168;2024-03-08T07:27:20;96944.09;;;-1.05;85.09
83460;BME280;73384;49.646;7.168;2024-03-08T07:29:45;96947.44;;;-0.95;84.58
83460;BME280;73384;49.646;7.168;2024-03-08T07:32:11;96950.06;;;-0.87;84.69
83460;BME280;73384;49.646;7.168;2024-03-08T07:34:43;96947.13;;;-0.76;83.40
83460;BME280;73384;49.646;7.168;2024-03-08T07:37:08;96946.31;;;-0.68;83.73
83460;BME280;73384;49.646;7.168;2024-03-08T07:39:37;96941.38;;;-0.55;83.62
83460;BME280;73384;49.646;7.168;2024-03-08T07:42:03;96942.88;;;-0.44;82.41
83460;BME280;73384;49.646;7.168;2024-03-08T07:44:28;96935.44;;;-0.32;82.46
83460;BME280;73384;49.646;7.168;2024-03-08T07:46:54;96930.50;;;-0.19;82.38
83460;BME280;73384;49.646;7.168;2024-03-08T07:49:20;96932.63;;;-0.06;81.98
83460;BME280;73384;49.646;7.168;2024-03-08T07:51:45;96934.22;;;0.12;81.25
83460;BME280;73384;49.646;7.168;2024-03-08T07:54:10;96925.78;;;0.33;80.34
83460;BME280;73384;49.646;7.168;2024-03-08T07:56:36;96922.78;;;0.44;79.39
83460;BME280;73384;49.646;7.168;2024-03-08T07:59:01;96922.22;;;0.57;78.51
83460;BME280;73384;49.646;7.168;2024-03-08T08:01:29;96916.72;;;0.67;78.59
83460;BME280;73384;49.646;7.168;2024-03-08T08:03:55;96912.38;;;0.82;78.11
83460;BME280;73384;49.646;7.168;2024-03-08T08:06:22;96916.09;;;0.96;77.69
83460;BME280;73384;49.646;7.168;2024-03-08T08:08:47;96908.59;;;1.08;77.34
83460;BME280;73384;49.646;7.168;2024-03-08T08:11:12;96879.44;;;1.01;77.24
83460;BME280;73384;49.646;7.168;2024-03-08T08:13:38;96916.03;;;1.28;75.45
83460;BME280;73384;49.646;7.168;2024-03-08T08:16:04;96908.41;;;1.33;76.37
83460;BME280;73384;49.646;7.168;2024-03-08T08:18:31;96904.59;;;1.35;75.74
83460;BME280;73384;49.646;7.168;2024-03-08T08:20:58;96878.94;;;1.29;75.94
83460;BME280;73384;49.646;7.168;2024-03-08T08:23:25;96900.81;;;1.38;75.31
83460;BME280;73384;49.646;7.168;2024-03-08T08:25:50;96900.38;;;1.49;75.87
83460;BME280;73384;49.646;7.168;2024-03-08T08:28:16;96871.97;;;1.51;74.80
83460;BME280;73384;49.646;7.168;2024-03-08T08:30:48;96894.88;;;1.74;74.37
83460;BME280;73384;49.646;7.168;2024-03-08T08:33:14;96892.44;;;1.87;73.53
83460;BME280;73384;49.646;7.168;2024-03-08T08:35:40;96880.41;;;2.00;74.88
83460;BME280;73384;49.646;7.168;2024-03-08T08:38:05;96884.44;;;2.10;73.16
83460;BME280;73384;49.646;7.168;2024-03-08T08:40:33;96895.28;;;2.01;72.24
83460;BME280;73384;49.646;7.168;2024-03-08T08:42:59;96879.59;;;2.14;72.56
83460;BME280;73384;49.646;7.168;2024-03-08T08:45:25;96882.72;;;2.18;73.06
83460;BME280;73384;49.646;7.168;2024-03-08T08:47:51;96887.44;;;2.22;73.22
83460;BME280;73384;49.646;7.168;2024-03-08T08:50:16;96890.16;;;2.14;72.68
83460;BME280;73384;49.646;7.168;2024-03-08T08:52:48;96875.13;;;2.29;72.90
83460;BME280;73384;49.646;7.168;2024-03-08T08:55:13;96886.44;;;2.38;72.07
83460;BME280;73384;49.646;7.168;2024-03-08T08:57:40;96881.81;;;2.25;72.51
83460;BME280;73384;49.646;7.168;2024-03-08T09:00:06;96863.47;;;2.09;72.60
83460;BME280;73384;49.646;7.168;2024-03-08T09:02:33;96870.75;;;2.22;73.42
83460;BME280;73384;49.646;7.168;2024-03-08T09:04:59;96866.03;;;2.32;72.85
83460;BME280;73384;49.646;7.168;2024-03-08T09:07:26;96875.06;;;2.38;72.62
83460;BME280;73384;49.646;7.168;2024-03-08T09:09:53;96855.03;;;2.50;72.34
83460;BME280;73384;49.646;7.168;2024-03-08T09:12:22;96862.56;;;2.83;71.47
83460;BME280;73384;49.646;7.168;2024-03-08T09:14:47;96854.94;;;2.95;70.28
83460;BME280;73384;49.646;7.168;2024-03-08T09:17:13;96863.00;;;3.08;70.18
83460;BME280;73384;49.646;7.168;2024-03-08T09:19:42;96860.19;;;3.10;70.37
83460;BME280;73384;49.646;7.168;2024-03-08T09:22:08;96857.41;;;2.96;70.01
83460;BME280;73384;49.646;7.168;2024-03-08T09:24:33;96861.69;;;2.97;69.68
83460;BME280;73384;49.646;7.168;2024-03-08T09:26:59;96836.66;;;3.21;70.38
83460;BME280;73384;49.646;7.168;2024-03-08T09:29:24;96858.53;;;3.09;69.74
83460;BME280;73384;49.646;7.168;2024-03-08T09:31:49;96854.69;;;3.11;70.58
83460;BME280;73384;49.646;7.168;2024-03-08T09:34:15;96847.44;;;3.20;69.46
83460;BME280;73384;49.646;7.168;2024-03-08T09:36:40;96852.91;;;3.18;69.70
83460;BME280;73384;49.646;7.168;2024-03-08T09:39:06;96842.78;;;3.22;68.93
83460;BME280;73384;49.646;7.168;2024-03-08T09:41:33;96841.31;;;3.41;69.35
83460;BME280;73384;49.646;7.168;2024-03-08T09:43:59;96841.28;;;3.63;69.52
83460;BME280;73384;49.646;7.168;2024-03-08T09:46:25;96837.84;;;3.69;67.40
83460;BME280;73384;49.646;7.168;2024-03-08T09:48:54;96827.72;;;3.79;67.02
83460;BME280;73384;49.646;7.168;2024-03-08T09:51:37;96817.91;;;4.08;67.10
83460;BME280;73384;49.646;7.168;2024-03-08T09:54:06;96821.88;;;3.90;67.48
83460;BME280;73384;49.646;7.168;2024-03-08T09:56:32;96816.13;;;3.80;67.46
83460;BME280;73384;49.646;7.168;2024-03-08T09:58:59;96795.09;;;4.07;64.72
83460;BME280;73384;49.646;7.168;2024-03-08T10:01:53;96796.38;;;4.99;63.20
83460;BME280;73384;49.646;7.168;2024-03-08T10:04:23;96791.22;;;5.78;59.79
83460;BME280;73384;49.646;7.168;2024-03-08T10:06:49;96780.75;;;6.17;59.33
83460;BME280;73384;49.646;7.168;2024-03-08T10:09:17;96789.38;;;6.89;56.81
83460;BME280;73384;49.646;7.168;2024-03-08T10:12:11;96746.97;;;7.19;54.31
83460;BME280;73384;49.646;7.168;2024-03-08T10:14:39;96769.19;;;6.75;56.03
83460;BME280;73384;49.646;7.168;2024-03-08T10:17:16;96771.09;;;7.50;54.98
83460;BME280;73384;49.646;7.168;2024-03-08T10:20:13;96782.53;;;7.57;55.70
83460;BME280;73384;49.646;7.168;2024-03-08T10:22:40;96772.50;;;8.15;52.86
83460;BME280;73384;49.646;7.168;2024-03-08T10:25:10;96756.94;;;8.11;52.82
83460;BME280;73384;49.646;7.168;2024-03-08T10:27:46;96759.41;;;8.50;51.16
83460;BME280;73384;49.646;7.168;2024-03-08T10:33:26;96750.88;;;9.26;48.83
83460;BME280;73384;49.646;7.168;2024-03-08T10:35:58;96740.63;;;8.99;50.02
83460;BME280;73384;49.646;7.168;2024-03-08T10:38:36;96751.47;;;9.75;48.67
83460;BME280;73384;49.646;7.168;2024-03-08T10:41:05;96740.06;;;9.09;48.98
83460;BME280;73384;49.646;7.168;2024-03-08T10:47:00;96722.88;;;9.64;47.49
83460;BME280;73384;49.646;7.168;2024-03-08T10:49:38;96734.97;;;9.19;49.23
83460;BME280;73384;49.646;7.168;2024-03-08T10:52:05;96724.72;;;9.87;47.69
83460;BME280;73384;49.646;7.168;2024-03-08T10:54:34;96712.19;;;9.64;48.20
83460;BME280;73384;49.646;7.168;2024-03-08T10:57:05;96720.53;;;10.43;47.43
83460;BME280;73384;49.646;7.168;2024-03-08T10:59:31;96721.84;;;10.87;45.46
83460;BME280;73384;49.646;7.168;2024-03-08T11:01:57;96720.31;;;10.74;45.40
83460;BME280;73384;49.646;7.168;2024-03-08T11:04:22;96711.50;;;11.80;43.49
83460;BME280;73384;49.646;7.168;2024-03-08T11:07:11;96709.69;;;10.96;45.88
83460;BME280;73384;49.646;7.168;2024-03-08T11:09:49;96709.41;;;11.48;43.08
83460;BME280;73384;49.646;7.168;2024-03-08T11:14:51;96710.41;;;11.42;44.11
83460;BME280;73384;49.646;7.168;2024-03-08T11:17:25;96707.38;;;12.12;42.56
83460;BME280;73384;49.646;7.168;2024-03-08T11:19:50;96700.31;;;12.05;43.22
83460;BME280;73384;49.646;7.168;2024-03-08T11:22:27;96697.16;;;12.36;41.61
83460;BME280;73384;49.646;7.168;2024-03-08T11:24:53;96691.22;;;12.83;41.67
83460;BME280;73384;49.646;7.168;2024-03-08T11:27:19;96698.50;;;12.88;40.34
83460;BME280;73384;49.646;7.168;2024-03-08T11:29:59;96696.00;;;13.08;40.29
83460;BME280;73384;49.646;7.168;2024-03-08T11:32:27;96700.66;;;13.23;39.66
83460;BME280;73384;49.646;7.168;2024-03-08T11:34:54;96702.59;;;13.28;39.27
83460;BME280;73384;49.646;7.168;2024-03-08T11:37:20;96708.47;;;13.25;40.62
83460;BME280;73384;49.646;7.168;2024-03-08T11:39:53;96693.50;;;13.02;40.92
83460;BME280;73384;49.646;7.168;2024-03-08T11:42:24;96702.44;;;13.07;39.73
83460;BME280;73384;49.646;7.168;2024-03-08T11:44:51;96698.31;;;13.32;39.44
83460;BME280;73384;49.646;7.168;2024-03-08T11:47:18;96692.84;;;13.54;39.17
83460;BME280;73384;49.646;7.168;2024-03-08T11:49:43;96688.22;;;13.44;38.80
83460;BME280;73384;49.646;7.168;2024-03-08T11:52:17;96684.41;;;13.40;39.29
83460;BME280;73384;49.646;7.168;2024-03-08T11:54:52;96678.47;;;13.81;38.63
83460;BME280;73384;49.646;7.168;2024-03-08T11:57:19;96658.19;;;14.26;37.15
83460;BME280;73384;49.646;7.168;2024-03-08T11:59:55;96656.94;;;13.81;38.00
83460;BME280;73384;49.646;7.168;2024-03-08T12:02:22;96655.63;;;12.16;40.81
83460;BME280;73384;49.646;7.168;2024-03-08T12:04:55;96663.16;;;13.39;38.95
83460;BME280;73384;49.646;7.168;2024-03-08T12:07:21;96643.56;;;13.43;39.47
83460;BME280;73384;49.646;7.168;2024-03-08T12:10:21;96645.94;;;13.02;38.82
83460;BME280;73384;49.646;7.168;2024-03-08T12:12:49;96643.19;;;13.72;38.27
83460;BME280;73384;49.646;7.168;2024-03-08T12:15:17;96625.50;;;13.97;38.35
83460;BME280;73384;49.646;7.168;2024-03-08T12:17:44;96633.78;;;14.69;37.39
83460;BME280;73384;49.646;7.168;2024-03-08T12:20:28;96632.84;;;14.17;37.41
83460;BME280;73384;49.646;7.168;2024-03-08T12:22:57;96614.72;;;13.92;38.30
83460;BME280;73384;49.646;7.168;2024-03-08T12:25:33;96610.28;;;14.33;37.66
83460;BME280;73384;49.646;7.168;2024-03-08T12:28:12;96605.50;;;13.24;39.59
83460;BME280;73384;49.646;7.168;2024-03-08T12:31:26;96598.84;;;13.85;38.80
83460;BME280;73384;49.646;7.168;2024-03-08T12:34:09;96595.03;;;13.81;37.95
83460;BME280;73384;49.646;7.168;2024-03-08T12:37:11;96598.53;;;13.28;38.89
83460;BME280;73384;49.646;7.168;2024-03-08T12:39:51;96579.06;;;15.04;35.18
83460;BME280;73384;49.646;7.168;2024-03-08T12:42:21;96573.47;;;15.87;34.24
83460;BME280;73384;49.646;7.168;2024-03-08T12:44:48;96577.38;;;16.15;33.78
83460;BME280;73384;49.646;7.168;2024-03-08T12:47:13;96569.84;;;15.31;34.56
83460;BME280;73384;49.646;7.168;2024-03-08T12:49:39;96569.88;;;15.16;34.92
83460;BME280;73384;49.646;7.168;2024-03-08T12:52:12;96570.00;;;16.26;34.38
83460;BME280;73384;49.646;7.168;2024-03-08T12:54:45;96567.31;;;16.26;34.19
83460;BME280;73384;49.646;7.168;2024-03-08T12:57:15;96555.13;;;15.83;34.09
83460;BME280;73384;49.646;7.168;2024-03-08T12:59:44;96554.53;;;14.54;36.36
83460;BME280;73384;49.646;7.168;2024-03-08T13:02:10;96531.56;;;15.19;35.32
83460;BME280;73384;49.646;7.168;2024-03-08T13:04:39;96543.75;;;14.34;36.04
83460;BME280;73384;49.646;7.168;2024-03-08T13:07:08;96549.44;;;14.68;35.76
83460;BME280;73384;49.646;7.168;2024-03-08T13:09:34;96547.78;;;14.36;36.72
83460;BME280;73384;49.646;7.168;2024-03-08T13:12:14;96550.47;;;15.03;35.79
83460;BME280;73384;49.646;7.168;2024-03-08T13:14:52;96540.47;;;15.24;35.37